sensor_id;sensor_type;location;lat;lon;timestamp;temperature;humidity
20345;DHT22;10330;48.816;9.278;2023-08-24T00:00:20;23.20;99.90
20345;DHT22;10330;48.816;9.278;2023-08-24T00:02:47;23.30;99.90
20345;DHT22;10330;48.816;9.278;2023-08-24T00:05:13;23.20;99.90
20345;DHT22;10330;48.816;9.278;2023-08-24T00:07:39;23.00;99.90
20345;DHT22;10330;48.816;9.278;2023-08-24T00:10:06;23.10;99.90
20345;DHT22;10330;48.816;9.278;2023-08-24T00:12:33;23.10;99.90
20345;DHT22;10330;48.816;9.278;2023-08-24T00:15:00;22.90;99.90
20345;DHT22;10330;48.816;9.278;2023-08-24T00:17:26;22.80;99.90
20345;DHT22;10330;48.816;9.278;2023-08-24T00:19:52;22.60;99.90
20345;DHT22;10330;48.816;9.278;2023-08-24T00:22:18;22.60;99.90
20345;DHT22;10330;48.816;9.278;2023-08-24T00:24:44;22.50;99.90
20345;DHT22;10330;48.816;9.278;2023-08-24T00:27:10;22.50;99.90
20345;DHT22;10330;48.816;9.278;2023-08-24T00:29:37;22.50;99.90
20345;DHT22;10330;48.816;9.278;2023-08-24T00:32:03;22.30;99.90
20345;DHT22;10330;48.816;9.278;2023-08-24T00:34:29;22.00;99.90
20345;DHT22;10330;48.816;9.278;2023-08-24T00:36:55;22.10;99.90
20345;DHT22;10330;48.816;9.278;2023-08-24T00:39:21;22.00;99.90
20345;DHT22;10330;48.816;9.278;2023-08-24T00:41:47;22.10;99.90
20345;DHT22;10330;48.816;9.278;2023-08-24T00:44:14;22.10;99.90
20345;DHT22;10330;48.816;9.278;2023-08-24T00:46:40;22.10;99.90
20345;DHT22;10330;48.816;9.278;2023-08-24T00:49:07;22.00;99.90
20345;DHT22;10330;48.816;9.278;2023-08-24T00:51:34;22.00;99.90
20345;DHT22;10330;48.816;9.278;2023-08-24T00:54:00;22.00;99.90
20345;DHT22;10330;48.816;9.278;2023-08-24T00:56:26;21.90;99.90
20345;DHT22;10330;48.816;9.278;2023-08-24T00:58:54;21.90;99.90
20345;DHT22;10330;48.816;9.278;2023-08-24T01:01:20;21.60;99.90
20345;DHT22;10330;48.816;9.278;2023-08-24T01:03:47;21.50;99.90
20345;DHT22;10330;48.816;9.278;2023-08-24T01:06:13;21.50;99.90
20345;DHT22;10330;48.816;9.278;2023-08-24T01:08:39;21.60;99.90
20345;DHT22;10330;48.816;9.278;2023-08-24T01:11:15;21.70;99.90
20345;DHT22;10330;48.816;9.278;2023-08-24T01:13:51;21.70;99.90
20345;DHT22;10330;48.816;9.278;2023-08-24T01:16:27;21.70;99.90
20345;DHT22;10330;48.816;9.278;2023-08-24T01:18:57;21.70;99.90
20345;DHT22;10330;48.816;9.278;2023-08-24T01:21:26;21.70;99.90
20345;DHT22;10330;48.816;9.278;2023-08-24T01:26:27;21.70;99.90
20345;DHT22;10330;48.816;9.278;2023-08-24T01:28:54;21.60;99.90
20345;DHT22;10330;48.816;9.278;2023-08-24T01:31:20;21.70;99.90
20345;DHT22;10330;48.816;9.278;2023-08-24T01:33:48;21.70;99.90
20345;DHT22;10330;48.816;9.278;2023-08-24T01:36:15;21.80;99.90
20345;DHT22;10330;48.816;9.278;2023-08-24T01:38:43;21.90;99.90
20345;DHT22;10330;48.816;9.278;2023-08-24T01:41:28;21.70;99.90
20345;DHT22;10330;48.816;9.278;2023-08-24T01:43:57;21.70;99.90
20345;DHT22;10330;48.816;9.278;2023-08-24T01:46:25;21.50;99.90
20345;DHT22;10330;48.816;9.278;2023-08-24T01:48:53;21.50;99.90
20345;DHT22;10330;48.816;9.278;2023-08-24T01:51:20;21.40;99.90
20345;DHT22;10330;48.816;9.278;2023-08-24T01:53:47;21.40;99.90
20345;DHT22;10330;48.816;9.278;2023-08-24T01:56:15;21.50;99.90
20345;DHT22;10330;48.816;9.278;2023-08-24T01:58:42;21.50;99.90
20345;DHT22;10330;48.816;9.278;2023-08-24T02:01:09;21.50;99.90
20345;DHT22;10330;48.816;9.278;2023-08-24T02:03:36;21.40;99.90
20345;DHT22;10330;48.816;9.278;2023-08-24T02:06:04;21.30;99.90
20345;DHT22;10330;48.816;9.278;2023-08-24T02:08:32;21.40;99.90
20345;DHT22;10330;48.816;9.278;2023-08-24T02:10:59;21.50;99.90
20345;DHT22;10330;48.816;9.278;2023-08-24T02:13:25;21.60;99.90
20345;DHT22;10330;48.816;9.278;2023-08-24T02:16:07;21.60;99.90
20345;DHT22;10330;48.816;9.278;2023-08-24T02:18:35;21.30;99.90
20345;DHT22;10330;48.816;9.278;2023-08-24T02:21:10;21.30;99.90
20345;DHT22;10330;48.816;9.278;2023-08-24T02:23:38;21.40;99.90
20345;DHT22;10330;48.816;9.278;2023-08-24T02:26:05;21.40;99.90
20345;DHT22;10330;48.816;9.278;2023-08-24T02:28:32;21.40;99.90
20345;DHT22;10330;48.816;9.278;2023-08-24T02:31:03;21.30;99.90
20345;DHT22;10330;48.816;9.278;2023-08-24T02:33:30;21.30;99.90
20345;DHT22;10330;48.816;9.278;2023-08-24T02:35:56;21.30;99.90
20345;DHT22;10330;48.816;9.278;2023-08-24T02:38:26;21.30;99.90
20345;DHT22;10330;48.816;9.278;2023-08-24T02:41:05;21.30;99.90
20345;DHT22;10330;48.816;9.278;2023-08-24T02:43:32;21.30;99.90
20345;DHT22;10330;48.816;9.278;2023-08-24T02:46:07;21.30;99.90
20345;DHT22;10330;48.816;9.278;2023-08-24T02:48:34;21.30;99.90
20345;DHT22;10330;48.816;9.278;2023-08-24T02:51:03;21.30;99.90
20345;DHT22;10330;48.816;9.278;2023-08-24T02:53:30;21.30;99.90
20345;DHT22;10330;48.816;9.278;2023-08-24T02:55:56;21.40;99.90
20345;DHT22;10330;48.816;9.278;2023-08-24T02:58:23;21.40;99.90
20345;DHT22;10330;48.816;9.278;2023-08-24T03:00:49;21.30;99.90
20345;DHT22;10330;48.816;9.278;2023-08-24T03:03:15;21.20;99.90
20345;DHT22;10330;48.816;9.278;2023-08-24T03:05:58;21.30;99.90
20345;DHT22;10330;48.816;9.278;2023-08-24T03:08:28;21.20;99.90
20345;DHT22;10330;48.816;9.278;2023-08-24T03:10:54;21.20;99.90
20345;DHT22;10330;48.816;9.278;2023-08-24T03:13:20;21.20;99.90
20345;DHT22;10330;48.816;9.278;2023-08-24T03:15:47;21.20;99.90
20345;DHT22;10330;48.816;9.278;2023-08-24T03:18:14;21.20;99.90
20345;DHT22;10330;48.816;9.278;2023-08-24T03:20:41;21.10;99.90
20345;DHT22;10330;48.816;9.278;2023-08-24T03:23:07;21.20;99.90
20345;DHT22;10330;48.816;9.278;2023-08-24T03:25:36;21.20;99.90
20345;DHT22;10330;48.816;9.278;2023-08-24T03:28:03;21.10;99.90
20345;DHT22;10330;48.816;9.278;2023-08-24T03:30:29;21.10;99.90
20345;DHT22;10330;48.816;9.278;2023-08-24T03:32:56;21.20;99.90
20345;DHT22;10330;48.816;9.278;2023-08-24T03:35:25;21.20;99.90
20345;DHT22;10330;48.816;9.278;2023-08-24T03:37:51;21.10;99.90
20345;DHT22;10330;48.816;9.278;2023-08-24T03:40:17;21.00;99.90
20345;DHT22;10330;48.816;9.278;2023-08-24T03:42:43;20.90;99.90
20345;DHT22;10330;48.816;9.278;2023-08-24T03:45:09;20.90;99.90
20345;DHT22;10330;48.816;9.278;2023-08-24T03:47:38;20.70;99.90
20345;DHT22;10330;48.816;9.278;2023-08-24T03:50:04;20.90;99.90
20345;DHT22;10330;48.816;9.278;2023-08-24T03:52:31;20.90;99.90
20345;DHT22;10330;48.816;9.278;2023-08-24T03:55:00;20.90;99.90
20345;DHT22;10330;48.816;9.278;2023-08-24T03:57:27;20.80;99.90
20345;DHT22;10330;48.816;9.278;2023-08-24T03:59:53;20.80;99.90
20345;DHT22;10330;48.816;9.278;2023-08-24T04:02:19;20.70;99.90
20345;DHT22;10330;48.816;9.278;2023-08-24T04:04:46;20.70;99.90
20345;DHT22;10330;48.816;9.278;2023-08-24T04:07:12;20.60;99.90
20345;DHT22;10330;48.816;9.278;2023-08-24T04:09:39;20.60;99.90
20345;DHT22;10330;48.816;9.278;2023-08-24T04:12:06;20.40;99.90
20345;DHT22;10330;48.816;9.278;2023-08-24T04:14:32;20.60;99.90
20345;DHT22;10330;48.816;9.278;2023-08-24T04:16:58;20.50;99.90
20345;DHT22;10330;48.816;9.278;2023-08-24T04:19:24;20.60;99.90
20345;DHT22;10330;48.816;9.278;2023-08-24T04:21:50;20.50;99.90
20345;DHT22;10330;48.816;9.278;2023-08-24T04:24:16;20.60;99.90
20345;DHT22;10330;48.816;9.278;2023-08-24T04:26:43;20.60;99.90
20345;DHT22;10330;48.816;9.278;2023-08-24T04:29:09;20.60;99.90
20345;DHT22;10330;48.816;9.278;2023-08-24T04:31:35;20.70;99.90
20345;DHT22;10330;48.816;9.278;2023-08-24T04:34:03;20.60;99.90
20345;DHT22;10330;48.816;9.278;2023-08-24T04:36:30;20.60;99.90
20345;DHT22;10330;48.816;9.278;2023-08-24T04:38:56;20.70;99.90
20345;DHT22;10330;48.816;9.278;2023-08-24T04:41:22;20.60;99.90
20345;DHT22;10330;48.816;9.278;2023-08-24T04:43:48;20.60;99.90
20345;DHT22;10330;48.816;9.278;2023-08-24T04:46:14;20.60;99.90
20345;DHT22;10330;48.816;9.278;2023-08-24T04:48:40;20.60;99.90
20345;DHT22;10330;48.816;9.278;2023-08-24T04:51:06;20.60;99.90
20345;DHT22;10330;48.816;9.278;2023-08-24T04:53:32;20.70;99.90
20345;DHT22;10330;48.816;9.278;2023-08-24T04:55:59;20.70;99.90
20345;DHT22;10330;48.816;9.278;2023-08-24T04:58:25;20.70;99.90
20345;DHT22;10330;48.816;9.278;2023-08-24T05:00:52;20.70;99.90
20345;DHT22;10330;48.816;9.278;2023-08-24T05:03:18;20.70;99.90
20345;DHT22;10330;48.816;9.278;2023-08-24T05:05:45;20.60;99.90
20345;DHT22;10330;48.816;9.278;2023-08-24T05:08:13;20.60;99.90
20345;DHT22;10330;48.816;9.278;2023-08-24T05:10:39;20.70;99.90
20345;DHT22;10330;48.816;9.278;2023-08-24T05:13:06;20.90;99.90
20345;DHT22;10330;48.816;9.278;2023-08-24T05:15:32;21.00;99.90
20345;DHT22;10330;48.816;9.278;2023-08-24T05:17:58;21.00;99.90
20345;DHT22;10330;48.816;9.278;2023-08-24T05:20:26;20.90;99.90
20345;DHT22;10330;48.816;9.278;2023-08-24T05:22:52;20.90;99.90
20345;DHT22;10330;48.816;9.278;2023-08-24T05:25:21;21.00;99.90
20345;DHT22;10330;48.816;9.278;2023-08-24T05:27:48;21.00;99.90
20345;DHT22;10330;48.816;9.278;2023-08-24T05:30:14;20.90;99.90
20345;DHT22;10330;48.816;9.278;2023-08-24T05:32:40;21.00;99.90
20345;DHT22;10330;48.816;9.278;2023-08-24T05:35:08;21.10;99.90
20345;DHT22;10330;48.816;9.278;2023-08-24T05:37:35;21.10;99.90
20345;DHT22;10330;48.816;9.278;2023-08-24T05:40:02;21.20;99.90
20345;DHT22;10330;48.816;9.278;2023-08-24T05:42:28;21.30;99.90
20345;DHT22;10330;48.816;9.278;2023-08-24T05:44:55;21.50;99.90
20345;DHT22;10330;48.816;9.278;2023-08-24T05:47:21;21.60;99.90
20345;DHT22;10330;48.816;9.278;2023-08-24T05:49:47;21.50;99.90
20345;DHT22;10330;48.816;9.278;2023-08-24T05:52:14;21.50;99.90
20345;DHT22;10330;48.816;9.278;2023-08-24T05:54:40;21.50;99.90
20345;DHT22;10330;48.816;9.278;2023-08-24T05:57:06;21.50;99.90
20345;DHT22;10330;48.816;9.278;2023-08-24T05:59:33;21.60;99.90
20345;DHT22;10330;48.816;9.278;2023-08-24T06:01:59;21.70;99.90
20345;DHT22;10330;48.816;9.278;2023-08-24T06:04:25;21.80;99.90
20345;DHT22;10330;48.816;9.278;2023-08-24T06:06:51;21.80;99.90
20345;DHT22;10330;48.816;9.278;2023-08-24T06:09:17;21.80;99.90
20345;DHT22;10330;48.816;9.278;2023-08-24T06:11:44;21.80;99.90
20345;DHT22;10330;48.816;9.278;2023-08-24T06:14:10;21.90;99.90
20345;DHT22;10330;48.816;9.278;2023-08-24T06:16:36;21.90;99.90
20345;DHT22;10330;48.816;9.278;2023-08-24T06:19:02;22.00;99.90
20345;DHT22;10330;48.816;9.278;2023-08-24T06:21:29;22.00;99.90
20345;DHT22;10330;48.816;9.278;2023-08-24T06:23:55;22.10;99.90
20345;DHT22;10330;48.816;9.278;2023-08-24T06:26:25;22.20;99.90
20345;DHT22;10330;48.816;9.278;2023-08-24T06:28:53;22.10;99.90
20345;DHT22;10330;48.816;9.278;2023-08-24T06:31:21;22.20;99.90
20345;DHT22;10330;48.816;9.278;2023-08-24T06:33:48;22.30;99.90
20345;DHT22;10330;48.816;9.278;2023-08-24T06:36:14;22.40;99.90
20345;DHT22;10330;48.816;9.278;2023-08-24T06:38:41;22.50;99.90
20345;DHT22;10330;48.816;9.278;2023-08-24T06:41:07;22.40;99.90
20345;DHT22;10330;48.816;9.278;2023-08-24T06:43:37;22.30;99.90
20345;DHT22;10330;48.816;9.278;2023-08-24T06:46:05;22.30;99.90
20345;DHT22;10330;48.816;9.278;2023-08-24T06:48:35;22.10;99.90
20345;DHT22;10330;48.816;9.278;2023-08-24T06:51:03;22.00;99.90
20345;DHT22;10330;48.816;9.278;2023-08-24T06:53:29;21.90;99.90
20345;DHT22;10330;48.816;9.278;2023-08-24T06:55:56;21.80;99.90
20345;DHT22;10330;48.816;9.278;2023-08-24T06:58:23;21.80;99.90
20345;DHT22;10330;48.816;9.278;2023-08-24T07:00:50;22.00;99.90
20345;DHT22;10330;48.816;9.278;2023-08-24T07:03:20;22.00;99.90
20345;DHT22;10330;48.816;9.278;2023-08-24T07:05:46;22.00;99.90
20345;DHT22;10330;48.816;9.278;2023-08-24T07:08:13;22.00;99.90
20345;DHT22;10330;48.816;9.278;2023-08-24T07:10:40;22.00;99.90
20345;DHT22;10330;48.816;9.278;2023-08-24T07:13:07;22.20;99.90
20345;DHT22;10330;48.816;9.278;2023-08-24T07:15:33;22.30;99.90
20345;DHT22;10330;48.816;9.278;2023-08-24T07:18:04;22.40;99.90
20345;DHT22;10330;48.816;9.278;2023-08-24T07:20:33;22.40;99.90
20345;DHT22;10330;48.816;9.278;2023-08-24T07:22:59;22.70;99.90
20345;DHT22;10330;48.816;9.278;2023-08-24T07:25:25;22.80;99.90
20345;DHT22;10330;48.816;9.278;2023-08-24T07:27:52;22.80;99.90
20345;DHT22;10330;48.816;9.278;2023-08-24T07:30:25;22.90;99.90
20345;DHT22;10330;48.816;9.278;2023-08-24T07:32:55;23.00;99.90
20345;DHT22;10330;48.816;9.278;2023-08-24T07:35:22;23.10;99.90
20345;DHT22;10330;48.816;9.278;2023-08-24T07:37:51;23.20;99.90
20345;DHT22;10330;48.816;9.278;2023-08-24T07:40:18;23.40;99.90
20345;DHT22;10330;48.816;9.278;2023-08-24T07:42:45;23.50;99.90
20345;DHT22;10330;48.816;9.278;2023-08-24T07:45:12;23.60;99.90
20345;DHT22;10330;48.816;9.278;2023-08-24T07:47:40;23.50;99.90
20345;DHT22;10330;48.816;9.278;2023-08-24T07:50:07;23.50;99.90
20345;DHT22;10330;48.816;9.278;2023-08-24T07:52:34;23.50;99.90
20345;DHT22;10330;48.816;9.278;2023-08-24T07:55:00;23.50;99.90
20345;DHT22;10330;48.816;9.278;2023-08-24T07:57:30;23.50;99.90
20345;DHT22;10330;48.816;9.278;2023-08-24T07:59:58;23.70;99.90
20345;DHT22;10330;48.816;9.278;2023-08-24T08:02:24;23.80;99.90
20345;DHT22;10330;48.816;9.278;2023-08-24T08:04:50;23.90;99.90
20345;DHT22;10330;48.816;9.278;2023-08-24T08:07:17;24.00;99.90
20345;DHT22;10330;48.816;9.278;2023-08-24T08:09:43;23.90;99.90
20345;DHT22;10330;48.816;9.278;2023-08-24T08:12:09;24.00;99.90
20345;DHT22;10330;48.816;9.278;2023-08-24T08:14:36;23.90;99.90
20345;DHT22;10330;48.816;9.278;2023-08-24T08:17:02;24.00;99.90
20345;DHT22;10330;48.816;9.278;2023-08-24T08:19:28;24.10;99.90
20345;DHT22;10330;48.816;9.278;2023-08-24T08:21:54;24.20;99.90
20345;DHT22;10330;48.816;9.278;2023-08-24T08:24:20;24.40;99.90
20345;DHT22;10330;48.816;9.278;2023-08-24T08:26:46;24.50;99.90
20345;DHT22;10330;48.816;9.278;2023-08-24T08:29:12;24.80;99.90
20345;DHT22;10330;48.816;9.278;2023-08-24T08:31:40;24.70;99.90
20345;DHT22;10330;48.816;9.278;2023-08-24T08:34:06;24.60;99.90
20345;DHT22;10330;48.816;9.278;2023-08-24T08:36:32;24.60;99.90
20345;DHT22;10330;48.816;9.278;2023-08-24T08:38:59;24.70;99.90
20345;DHT22;10330;48.816;9.278;2023-08-24T08:41:27;24.90;99.90
20345;DHT22;10330;48.816;9.278;2023-08-24T08:43:56;25.00;99.90
20345;DHT22;10330;48.816;9.278;2023-08-24T08:46:22;25.10;99.90
20345;DHT22;10330;48.816;9.278;2023-08-24T08:48:51;25.00;99.90
20345;DHT22;10330;48.816;9.278;2023-08-24T08:51:18;25.20;99.90
20345;DHT22;10330;48.816;9.278;2023-08-24T08:53:45;25.30;99.90
20345;DHT22;10330;48.816;9.278;2023-08-24T08:56:11;25.40;99.90
20345;DHT22;10330;48.816;9.278;2023-08-24T08:58:39;25.60;99.90
20345;DHT22;10330;48.816;9.278;2023-08-24T09:01:09;25.80;99.90
20345;DHT22;10330;48.816;9.278;2023-08-24T09:03:35;25.80;99.90
20345;DHT22;10330;48.816;9.278;2023-08-24T09:06:03;25.80;99.90
20345;DHT22;10330;48.816;9.278;2023-08-24T09:08:30;25.80;99.90
20345;DHT22;10330;48.816;9.278;2023-08-24T09:10:58;25.90;99.90
20345;DHT22;10330;48.816;9.278;2023-08-24T09:13:25;26.00;99.90
20345;DHT22;10330;48.816;9.278;2023-08-24T09:15:52;26.00;99.90
20345;DHT22;10330;48.816;9.278;2023-08-24T09:18:19;26.20;99.90
20345;DHT22;10330;48.816;9.278;2023-08-24T09:20:47;26.30;99.90
20345;DHT22;10330;48.816;9.278;2023-08-24T09:23:18;26.30;99.90
20345;DHT22;10330;48.816;9.278;2023-08-24T09:25:46;26.30;99.90
20345;DHT22;10330;48.816;9.278;2023-08-24T09:28:24;26.40;99.90
20345;DHT22;10330;48.816;9.278;2023-08-24T09:30:54;26.40;99.90
20345;DHT22;10330;48.816;9.278;2023-08-24T09:33:23;26.40;99.90
20345;DHT22;10330;48.816;9.278;2023-08-24T09:35:55;26.40;99.90
20345;DHT22;10330;48.816;9.278;2023-08-24T09:38:27;26.50;99.90
20345;DHT22;10330;48.816;9.278;2023-08-24T09:40:55;26.60;99.90
20345;DHT22;10330;48.816;9.278;2023-08-24T09:43:22;26.60;99.90
20345;DHT22;10330;48.816;9.278;2023-08-24T09:45:56;26.80;99.90
20345;DHT22;10330;48.816;9.278;2023-08-24T09:48:23;26.80;99.90
20345;DHT22;10330;48.816;9.278;2023-08-24T09:50:51;26.90;99.90
20345;DHT22;10330;48.816;9.278;2023-08-24T09:53:21;27.00;99.90
20345;DHT22;10330;48.816;9.278;2023-08-24T09:56:01;27.00;99.90
20345;DHT22;10330;48.816;9.278;2023-08-24T09:58:28;27.20;99.90
20345;DHT22;10330;48.816;9.278;2023-08-24T10:00:55;27.20;99.90
20345;DHT22;10330;48.816;9.278;2023-08-24T10:03:25;27.30;99.90
20345;DHT22;10330;48.816;9.278;2023-08-24T10:05:53;27.40;99.90
20345;DHT22;10330;48.816;9.278;2023-08-24T10:08:29;27.50;99.90
20345;DHT22;10330;48.816;9.278;2023-08-24T10:10:56;27.60;99.90
20345;DHT22;10330;48.816;9.278;2023-08-24T10:13:39;27.60;99.90
20345;DHT22;10330;48.816;9.278;2023-08-24T10:16:08;27.70;99.90
20345;DHT22;10330;48.816;9.278;2023-08-24T10:18:35;27.70;99.90
20345;DHT22;10330;48.816;9.278;2023-08-24T10:21:02;27.80;99.90
20345;DHT22;10330;48.816;9.278;2023-08-24T10:23:29;27.80;99.90
20345;DHT22;10330;48.816;9.278;2023-08-24T10:25:56;28.00;99.90
20345;DHT22;10330;48.816;9.278;2023-08-24T10:28:24;28.10;99.90
20345;DHT22;10330;48.816;9.278;2023-08-24T10:30:54;28.10;99.90
20345;DHT22;10330;48.816;9.278;2023-08-24T10:33:21;28.20;99.90
20345;DHT22;10330;48.816;9.278;2023-08-24T10:35:48;28.30;99.90
20345;DHT22;10330;48.816;9.278;2023-08-24T10:38:28;28.20;99.90
20345;DHT22;10330;48.816;9.278;2023-08-24T10:40:55;28.30;99.90
20345;DHT22;10330;48.816;9.278;2023-08-24T10:43:29;28.60;99.90
20345;DHT22;10330;48.816;9.278;2023-08-24T10:45:59;28.50;99.90
20345;DHT22;10330;48.816;9.278;2023-08-24T10:53:44;29.00;99.90
20345;DHT22;10330;48.816;9.278;2023-08-24T10:56:16;29.30;99.90
20345;DHT22;10330;48.816;9.278;2023-08-24T10:58:43;29.10;99.90
20345;DHT22;10330;48.816;9.278;2023-08-24T11:01:17;29.30;99.90
20345;DHT22;10330;48.816;9.278;2023-08-24T11:04:11;29.30;99.90
20345;DHT22;10330;48.816;9.278;2023-08-24T11:06:57;29.50;99.90
20345;DHT22;10330;48.816;9.278;2023-08-24T11:09:25;29.30;99.90
20345;DHT22;10330;48.816;9.278;2023-08-24T11:12:00;29.60;99.90
20345;DHT22;10330;48.816;9.278;2023-08-24T11:14:26;29.70;99.90
20345;DHT22;10330;48.816;9.278;2023-08-24T11:16:54;29.60;99.90
20345;DHT22;10330;48.816;9.278;2023-08-24T11:19:23;29.60;99.90
20345;DHT22;10330;48.816;9.278;2023-08-24T11:21:51;29.70;99.90
20345;DHT22;10330;48.816;9.278;2023-08-24T11:24:18;29.90;99.90
20345;DHT22;10330;48.816;9.278;2023-08-24T11:26:46;30.00;99.90
20345;DHT22;10330;48.816;9.278;2023-08-24T11:29:13;30.50;99.90
20345;DHT22;10330;48.816;9.278;2023-08-24T11:31:41;30.40;99.90
20345;DHT22;10330;48.816;9.278;2023-08-24T11:34:07;30.60;99.90
20345;DHT22;10330;48.816;9.278;2023-08-24T11:36:46;30.90;99.90
20345;DHT22;10330;48.816;9.278;2023-08-24T11:39:17;31.40;99.90
20345;DHT22;10330;48.816;9.278;2023-08-24T11:42:00;31.60;99.90
20345;DHT22;10330;48.816;9.278;2023-08-24T11:44:27;31.70;99.90
20345;DHT22;10330;48.816;9.278;2023-08-24T11:46:53;32.10;99.90
20345;DHT22;10330;48.816;9.278;2023-08-24T11:49:21;32.40;99.90
20345;DHT22;10330;48.816;9.278;2023-08-24T11:51:48;32.60;99.90
20345;DHT22;10330;48.816;9.278;2023-08-24T11:54:18;32.70;99.90
20345;DHT22;10330;48.816;9.278;2023-08-24T11:56:44;32.70;99.90
20345;DHT22;10330;48.816;9.278;2023-08-24T11:59:13;33.20;99.90
20345;DHT22;10330;48.816;9.278;2023-08-24T12:01:41;33.80;99.90
20345;DHT22;10330;48.816;9.278;2023-08-24T12:04:08;33.90;99.90
20345;DHT22;10330;48.816;9.278;2023-08-24T12:06:34;33.30;99.90
20345;DHT22;10330;48.816;9.278;2023-08-24T12:09:01;33.80;99.90
20345;DHT22;10330;48.816;9.278;2023-08-24T12:11:35;34.60;99.90
20345;DHT22;10330;48.816;9.278;2023-08-24T12:14:02;34.40;99.90
20345;DHT22;10330;48.816;9.278;2023-08-24T12:16:32;34.80;99.90
20345;DHT22;10330;48.816;9.278;2023-08-24T12:18:59;34.10;99.90
20345;DHT22;10330;48.816;9.278;2023-08-24T12:21:29;34.30;99.90
20345;DHT22;10330;48.816;9.278;2023-08-24T12:23:57;34.10;99.90
20345;DHT22;10330;48.816;9.278;2023-08-24T12:26:23;33.80;99.90
20345;DHT22;10330;48.816;9.278;2023-08-24T12:28:51;33.90;99.90
20345;DHT22;10330;48.816;9.278;2023-08-24T12:31:20;34.20;99.90
20345;DHT22;10330;48.816;9.278;2023-08-24T12:34:07;34.80;99.90
20345;DHT22;10330;48.816;9.278;2023-08-24T12:36:38;35.50;99.90
20345;DHT22;10330;48.816;9.278;2023-08-24T12:39:06;34.80;99.90
20345;DHT22;10330;48.816;9.278;2023-08-24T12:41:35;34.90;99.90
20345;DHT22;10330;48.816;9.278;2023-08-24T12:44:01;34.40;99.90
20345;DHT22;10330;48.816;9.278;2023-08-24T12:46:32;34.20;99.90
20345;DHT22;10330;48.816;9.278;2023-08-24T12:48:58;33.80;99.90
20345;DHT22;10330;48.816;9.278;2023-08-24T12:51:24;34.40;99.90
20345;DHT22;10330;48.816;9.278;2023-08-24T12:53:50;34.30;99.90
20345;DHT22;10330;48.816;9.278;2023-08-24T12:56:17;34.90;99.90
20345;DHT22;10330;48.816;9.278;2023-08-24T12:58:43;35.30;99.90
20345;DHT22;10330;48.816;9.278;2023-08-24T13:01:11;34.60;99.90
20345;DHT22;10330;48.816;9.278;2023-08-24T13:03:38;34.80;99.90
20345;DHT22;10330;48.816;9.278;2023-08-24T13:06:06;34.80;99.90
20345;DHT22;10330;48.816;9.278;2023-08-24T13:08:32;34.60;99.90
20345;DHT22;10330;48.816;9.278;2023-08-24T13:10:58;35.20;99.90
20345;DHT22;10330;48.816;9.278;2023-08-24T13:13:24;35.70;99.90
20345;DHT22;10330;48.816;9.278;2023-08-24T13:15:51;34.90;99.90
20345;DHT22;10330;48.816;9.278;2023-08-24T13:18:17;34.30;99.90
20345;DHT22;10330;48.816;9.278;2023-08-24T13:20:44;34.90;99.90
20345;DHT22;10330;48.816;9.278;2023-08-24T13:23:10;34.40;99.90
20345;DHT22;10330;48.816;9.278;2023-08-24T13:25:36;34.60;99.90
20345;DHT22;10330;48.816;9.278;2023-08-24T13:28:02;34.60;99.90
20345;DHT22;10330;48.816;9.278;2023-08-24T13:30:28;34.60;99.90
20345;DHT22;10330;48.816;9.278;2023-08-24T13:32:55;35.10;99.90
20345;DHT22;10330;48.816;9.278;2023-08-24T13:35:21;35.30;99.90
20345;DHT22;10330;48.816;9.278;2023-08-24T13:37:47;35.40;99.90
20345;DHT22;10330;48.816;9.278;2023-08-24T13:40:13;35.00;99.90
20345;DHT22;10330;48.816;9.278;2023-08-24T13:42:44;35.40;99.90
20345;DHT22;10330;48.816;9.278;2023-08-24T13:45:12;35.80;99.90
20345;DHT22;10330;48.816;9.278;2023-08-24T13:47:38;36.40;99.90
20345;DHT22;10330;48.816;9.278;2023-08-24T13:50:04;36.70;99.90
20345;DHT22;10330;48.816;9.278;2023-08-24T13:52:31;36.40;99.90
20345;DHT22;10330;48.816;9.278;2023-08-24T13:54:57;36.50;99.90
20345;DHT22;10330;48.816;9.278;2023-08-24T13:57:23;37.20;99.90
20345;DHT22;10330;48.816;9.278;2023-08-24T13:59:54;37.70;99.90
20345;DHT22;10330;48.816;9.278;2023-08-24T14:02:26;38.30;99.90
20345;DHT22;10330;48.816;9.278;2023-08-24T14:04:54;37.70;99.90
20345;DHT22;10330;48.816;9.278;2023-08-24T14:07:20;38.60;99.90
20345;DHT22;10330;48.816;9.278;2023-08-24T14:09:47;37.80;99.90
20345;DHT22;10330;48.816;9.278;2023-08-24T14:12:16;38.90;99.90
20345;DHT22;10330;48.816;9.278;2023-08-24T14:14:45;38.50;99.20
20345;DHT22;10330;48.816;9.278;2023-08-24T14:17:11;38.20;98.70
20345;DHT22;10330;48.816;9.278;2023-08-24T14:19:39;38.10;98.90
20345;DHT22;10330;48.816;9.278;2023-08-24T14:22:05;37.30;99.90
20345;DHT22;10330;48.816;9.278;2023-08-24T14:24:31;37.00;99.10
20345;DHT22;10330;48.816;9.278;2023-08-24T14:27:00;36.50;99.60
20345;DHT22;10330;48.816;9.278;2023-08-24T14:29:26;36.00;99.90
20345;DHT22;10330;48.816;9.278;2023-08-24T14:31:53;35.70;99.90
20345;DHT22;10330;48.816;9.278;2023-08-24T14:34:19;35.00;99.90
20345;DHT22;10330;48.816;9.278;2023-08-24T14:36:45;34.60;99.90
20345;DHT22;10330;48.816;9.278;2023-08-24T14:39:11;34.20;99.90
20345;DHT22;10330;48.816;9.278;2023-08-24T14:41:38;34.00;99.90
20345;DHT22;10330;48.816;9.278;2023-08-24T14:44:04;34.00;99.90
20345;DHT22;10330;48.816;9.278;2023-08-24T14:46:30;33.70;99.90
20345;DHT22;10330;48.816;9.278;2023-08-24T14:48:56;33.80;99.90
20345;DHT22;10330;48.816;9.278;2023-08-24T14:51:22;33.70;99.90
20345;DHT22;10330;48.816;9.278;2023-08-24T14:53:48;33.50;99.90
20345;DHT22;10330;48.816;9.278;2023-08-24T14:56:15;33.10;99.90
20345;DHT22;10330;48.816;9.278;2023-08-24T14:58:41;33.00;99.90
20345;DHT22;10330;48.816;9.278;2023-08-24T15:01:08;33.00;99.90
20345;DHT22;10330;48.816;9.278;2023-08-24T15:03:35;32.90;99.90
20345;DHT22;10330;48.816;9.278;2023-08-24T15:06:03;33.00;99.90
20345;DHT22;10330;48.816;9.278;2023-08-24T15:08:35;32.10;99.90
20345;DHT22;10330;48.816;9.278;2023-08-24T15:11:02;29.40;99.90
20345;DHT22;10330;48.816;9.278;2023-08-24T15:13:29;28.20;99.90
20345;DHT22;10330;48.816;9.278;2023-08-24T15:15:57;27.20;99.90
20345;DHT22;10330;48.816;9.278;2023-08-24T15:18:23;25.90;99.90
20345;DHT22;10330;48.816;9.278;2023-08-24T15:20:50;25.50;99.90
20345;DHT22;10330;48.816;9.278;2023-08-24T15:23:24;25.40;99.90
20345;DHT22;10330;48.816;9.278;2023-08-24T15:25:50;25.40;99.90
20345;DHT22;10330;48.816;9.278;2023-08-24T15:28:16;25.80;99.90
20345;DHT22;10330;48.816;9.278;2023-08-24T15:30:42;26.00;99.90
20345;DHT22;10330;48.816;9.278;2023-08-24T15:33:08;26.30;99.90
20345;DHT22;10330;48.816;9.278;2023-08-24T15:35:36;26.10;99.90
20345;DHT22;10330;48.816;9.278;2023-08-24T15:38:04;26.10;99.90
20345;DHT22;10330;48.816;9.278;2023-08-24T15:40:30;26.00;99.90